Dai15hakuryomaru — JD2439 — position and weather

sailwx.info

Track history (hours):
 
Tides and Currents Weather Stations Pressure Air Temp Water Temp Dewpoint Dewpoint Depression Visibility Wind Speed Wind Dir Waves Ship Positions

Dai15hakuryomaru

Last reported at 2014-Dec-13 05:34 UTC. Time now 2014-Dec-20 12:57 UTC.
Position N 35°19' E 139°43'.

Length 80 m; draft 5.4 m.

Type: Tanker. MMSI: 431000243.

Date/timePositionNaut miles runAvg speedWind from/ knotsBaromVisibWave heightAir tempDewpointWater temp
2014-Dec-13 05:34N 35°19' E 139°43'1510.4
2014-Dec-13 04:06N 35°31' E 139°54'4 0.6
2014-Dec-12 21:15N 35°31' E 139°59'0 0.0
2014-Dec-12 20:21N 35°31' E 139°59'3 0.4
2014-Dec-12 14:21N 35°30' E 139°57'1012.5
2014-Dec-12 13:34N 35°24' E 139°46'1211.7
2014-Dec-12 12:32N 35°12' E 139°47'  
2014-Dec-08 08:14N 35°16' E 139°46'812.3
2014-Dec-08 07:33N 35°23' E 139°41'3 2.9
2014-Dec-08 06:34N 35°24' E 139°38'0 0.0
2014-Dec-08 05:33N 35°24' E 139°38'0 0.0
2014-Dec-08 04:33N 35°24' E 139°38'0 0.0
2014-Dec-08 03:33N 35°24' E 139°38'0 0.0
2014-Dec-08 02:33N 35°24' E 139°38'3 2.6
2014-Dec-08 01:33N 35°22' E 139°40'0 0.1
2014-Dec-08 00:33N 35°22' E 139°40'0 0.0
2014-Dec-07 23:33N 35°22' E 139°40'0 0.0
2014-Dec-07 22:34N 35°22' E 139°40'0 0.0
2014-Dec-07 21:33N 35°22' E 139°40'0 0.0
2014-Dec-07 20:33N 35°22' E 139°40'0 0.1
2014-Dec-07 19:33N 35°22' E 139°40'1212.1
2014-Dec-07 18:33N 35°11' E 139°47'4 0.1
2014-Dec-06 05:07N 35°15' E 139°46'711.8
2014-Dec-06 04:33N 35°21' E 139°42'6 0.1
2014-Dec-04 10:33N 35°25' E 139°48'1110.9
2014-Dec-04 09:30N 35°14' E 139°47'2 0.1
2014-Dec-03 07:30N 35°16' E 139°46'1010.3
2014-Dec-03 06:33N 35°26' E 139°45'  
Track history (hours):
 
Tides and Currents Weather Stations Pressure Air Temp Water Temp Dewpoint Dewpoint Depression Visibility Wind Speed Wind Dir Waves Ship Positions

Dai15hakuryomaru

Last reported at 2014-Dec-13 05:34 UTC. Time now 2014-Dec-20 12:57 UTC.
Position N 35°19' E 139°43'.

Length 80 m; draft 5.4 m.

Type: Tanker. MMSI: 431000243.

Date/timePositionNaut miles runAvg speedWind from/ knotsBaromVisibWave heightAir tempDewpointWater temp
2014-Dec-13 05:34N 35°19' E 139°43'1510.4
2014-Dec-13 04:06N 35°31' E 139°54'4 0.6
2014-Dec-12 21:15N 35°31' E 139°59'0 0.0
2014-Dec-12 20:21N 35°31' E 139°59'3 0.4
2014-Dec-12 14:21N 35°30' E 139°57'1012.5
2014-Dec-12 13:34N 35°24' E 139°46'1211.7
2014-Dec-12 12:32N 35°12' E 139°47'  
2014-Dec-08 08:14N 35°16' E 139°46'812.3
2014-Dec-08 07:33N 35°23' E 139°41'3 2.9
2014-Dec-08 06:34N 35°24' E 139°38'0 0.0
2014-Dec-08 05:33N 35°24' E 139°38'0 0.0
2014-Dec-08 04:33N 35°24' E 139°38'0 0.0
2014-Dec-08 03:33N 35°24' E 139°38'0 0.0
2014-Dec-08 02:33N 35°24' E 139°38'3 2.6
2014-Dec-08 01:33N 35°22' E 139°40'0 0.1
2014-Dec-08 00:33N 35°22' E 139°40'0 0.0
2014-Dec-07 23:33N 35°22' E 139°40'0 0.0
2014-Dec-07 22:34N 35°22' E 139°40'0 0.0
2014-Dec-07 21:33N 35°22' E 139°40'0 0.0
2014-Dec-07 20:33N 35°22' E 139°40'0 0.1
2014-Dec-07 19:33N 35°22' E 139°40'1212.1
2014-Dec-07 18:33N 35°11' E 139°47'4 0.1
2014-Dec-06 05:07N 35°15' E 139°46'711.8
2014-Dec-06 04:33N 35°21' E 139°42'6 0.1
2014-Dec-04 10:33N 35°25' E 139°48'1110.9
2014-Dec-04 09:30N 35°14' E 139°47'2 0.1
2014-Dec-03 07:30N 35°16' E 139°46'1010.3
2014-Dec-03 06:33N 35°26' E 139°45'  

Dump ship's entire track history